Saturday, November 01, 2014
06:15 UTC
  |  Log In   |  Register Free
Airport Search:

Alpena County Regional Airport
(KAPN)

FAA data valid effective September 18, 2014 - November 13, 2014 (unless otherwise noted).

 
 
 
 
 
 
 
 
 
 
 
 
 
 

Current Aviation Weather for Alpena County Regional Airport (KAPN)

The most recent METAR observation for KAPN was updated at: 0608
METAR Summary (Translated METAR)
KAPN
010554Z AUTO 01011KT 10SM OVC034 M01/M06 A3033 RMK AO2 SLP279 T10061061 10000 21011 58000 $
KPZQ
010445Z AUTO 00011G16KT 10SM OVC032 M01/M05 A3037 RMK AO2
(22.5 nm NW from KAPN)
KOSC
010513Z AUTO 35013G20KT 10SM OVC024 00/M03 A3027 RMK AO2 T10021039
(38.3 nm SE from KAPN)
TAF Summary (Translated TAF)
KAPN
311737Z 3118/0118 01020G30KT 3SM -SHSN OVC025 TEMPO 3118/3119 2SM -SHSN OVC015 FM312100 36018G28KT P6SM -SHSN OVC035 FM010300 36012G20KT P6SM BKN035 FM010700 36011G20KT P6SM SCT035 FM011300 36008G18KT P6SM SKC
  Airport Weather Conditions for KAPN

 Current Weather at APN
31° F
Overcast
North winds at 12.7 mph
APN NOAA Radar

Pressure: 30.33 in
Humidity: 67%
Wind: North at 12.7 MPH (11 KT)
Dew Point: 21.0°F
Visibility: 10.00 mi


Airport Weather Forecast for KAPN

Translated METAR and TAF for KAPN
Translated METAR for KAPN (0610 UTC 01 November 2014)
found at http://aviationweather.gov/adds/metars/
 
METAR text: KAPN 010554Z AUTO 01011KT 10SM OVC034 M01/M06 A3033 RMK AO2 SLP279 T10061061 10000 21011 58000 $
Conditions at: KAPN (ALPENA , MI, US) observed 0554 UTC 01 November 2014
Temperature: -0.6°C (31°F)
Dewpoint: -6.1°C (21°F) [RH = 66%]
Pressure (altimeter): 30.33 inches Hg (1027.2 mb)
[Sea-level pressure: 1027.9 mb]
Winds: from the N (10 degrees) at 13 MPH (11 knots; 5.7 m/s)
Visibility: 10 or more miles (16+ km)
Ceiling: 3400 feet AGL
Clouds: overcast cloud deck at 3400 feet AGL
Weather:
SOME DATA ABOVE MAY BE INACCURATE!!!
"$" is an indication the sensor requires maintenance
Translated TAF for KAPN
Forecast for: KAPN (ALPENA , MI, US)
TAF Text: KAPN 010538Z 0106/0206 01014G21KT P6SM OVC030
Forecast period: 0600 to 0900 UTC 01 November 2014
Forecast type: FROM: standard forecast or significant change
Winds: from the N (10 degrees) at 16 MPH (14 knots; 7.3 m/s)
gusting to 24 MPH (21 knots; 10.9 m/s)
Visibility: 6 or more miles (10+ km)
Ceiling: 3000 feet AGL
Clouds: overcast cloud deck at 3000 feet AGL
Weather: no significant weather forecast for this period
TAF Text: FM010900 36010KT P6SM BKN027
Forecast period: 0900 to 1400 UTC 01 November 2014
Forecast type: FROM: standard forecast or significant change
Winds: from the N (360 degrees) at 12 MPH (10 knots; 5.2 m/s)
Visibility: 6 or more miles (10+ km)
Ceiling: 2700 feet AGL
Clouds: broken clouds at 2700 feet AGL
Weather: no significant weather forecast for this period
TAF Text: FM011400 36010G17KT P6SM FEW025
Forecast period: 1400 to 1900 UTC 01 November 2014
Forecast type: FROM: standard forecast or significant change
Winds: from the N (360 degrees) at 12 MPH (10 knots; 5.2 m/s)
gusting to 20 MPH (17 knots; 8.8 m/s)
Visibility: 6 or more miles (10+ km)
Clouds: few clouds at 2500 feet AGL
Weather: no significant weather forecast for this period
TAF Text: FM011900 35009KT P6SM SKC
Forecast period: 1900 to 2300 UTC 01 November 2014
Forecast type: FROM: standard forecast or significant change
Winds: from the N (350 degrees) at 10 MPH (9 knots; 4.7 m/s)
Visibility: 6 or more miles (10+ km)
Clouds: clear skies
Weather: no significant weather forecast for this period
TAF Text: FM012300 33003KT P6SM SKC
Forecast period: 2300 UTC 01 November 2014 to 0600 UTC 02 November 2014
Forecast type: FROM: standard forecast or significant change
Winds: from the NNW (330 degrees) at 3 MPH (3 knots; 1.6 m/s)
Visibility: 6 or more miles (10+ km)
Clouds: clear skies
Weather: no significant weather forecast for this period

Find All Airport Services Find A Hotel Find A Rental Car Find A Golf Course Find A Restaurant $100 Hamburger



FBO's on the Field
FBO Company Facility Photos Services Transportation Aviation Fuel Prices: Prices include tax
Catering Weather Repair Courtesy Rental Type 100LL JetA JetA+ MOGAS 8087
 
Aviation Express Inc.

This FBO has not yet been rated
FS:Shell
Last Updated: Oct-16
Login to update fuel prices
SS:
Contact Aviation Express Inc.More FBO Information
 
Aviation North

This FBO has not yet been rated
FS:Avfuel
Last Updated: Oct-06
Login to update fuel prices
SS:
Contact Aviation NorthMore FBO Information
 
Add another FBO Facility Photos Catering Weather Repair Courtesy Rental Type 100LL JetA JetA+ MOGAS 8087
Services Transportation Aviation Fuel Prices: Prices include tax


model-print
model-print
model-print
model-print